Time;durP1;ratioP1;P1;durP2;ratioP2;P2;SDS_P1;SDS_P2;PMS_P1;PMS_P2;Temp;Humidity;BMP_temperature;BMP_pressure;BME280_temperature;BME280_humidity;BME280_pressure;Samples;Min_cycle;Max_cycle;Signal;HPM_P1;HPM_P2
2023/12/21 00:01:37;;;;;;;1.33;1.23;;;7.00;99.90;;;;;;5009818;28;20568;-74
2023/12/21 00:04:03;;;;;;;1.33;1.27;;;7.00;99.90;;;;;;5018551;28;20932;-74
2023/12/21 00:06:29;;;;;;;1.30;1.20;;;7.10;99.90;;;;;;5015316;28;20461;-74
2023/12/21 00:08:55;;;;;;;1.13;1.07;;;7.10;99.90;;;;;;5007733;28;20516;-74
2023/12/21 00:11:21;;;;;;;1.10;1.00;;;7.10;99.90;;;;;;5023175;28;20456;-74
2023/12/21 00:13:47;;;;;;;1.10;1.10;;;7.10;99.90;;;;;;5015129;28;20213;-74
2023/12/21 00:16:13;;;;;;;1.27;0.83;;;7.10;99.90;;;;;;5021786;28;20864;-74
2023/12/21 00:18:39;;;;;;;5.13;1.40;;;7.00;99.90;;;;;;5015987;28;20728;-74
2023/12/21 00:21:05;;;;;;;1.03;0.93;;;7.00;99.90;;;;;;5025116;28;20467;-73
2023/12/21 00:23:30;;;;;;;0.87;0.87;;;7.00;99.90;;;;;;5018650;28;20276;-74
2023/12/21 00:25:56;;;;;;;1.03;0.93;;;7.00;99.90;;;;;;5010256;28;20239;-74
2023/12/21 00:28:22;;;;;;;0.87;0.87;;;7.00;99.90;;;;;;5023275;28;20244;-74
2023/12/21 00:30:48;;;;;;;1.70;0.73;;;7.00;99.90;;;;;;5023935;28;20205;-74
2023/12/21 00:33:13;;;;;;;1.43;0.80;;;7.10;99.90;;;;;;5009091;28;20464;-74
2023/12/21 00:35:39;;;;;;;0.90;0.70;;;7.00;99.90;;;;;;5003427;28;20223;-74
2023/12/21 00:38:05;;;;;;;1.33;1.00;;;7.10;99.90;;;;;;4982592;28;20337;-74
2023/12/21 00:40:30;;;;;;;0.90;0.70;;;7.10;99.90;;;;;;4999023;28;20267;-74
2023/12/21 00:42:57;;;;;;;1.53;0.80;;;7.10;99.90;;;;;;4996354;28;20722;-74
2023/12/21 00:45:23;;;;;;;0.70;0.57;;;7.10;99.90;;;;;;4998035;28;20289;-74
2023/12/21 00:47:49;;;;;;;0.70;0.70;;;7.10;99.90;;;;;;4994415;28;20553;-75
2023/12/21 00:50:15;;;;;;;3.10;0.83;;;7.10;99.90;;;;;;5002225;28;20547;-74
2023/12/21 00:52:41;;;;;;;1.33;0.70;;;7.10;99.90;;;;;;4982203;28;20233;-75
2023/12/21 00:55:07;;;;;;;0.63;0.63;;;7.10;99.90;;;;;;4999460;28;20469;-75
2023/12/21 00:57:33;;;;;;;0.40;0.40;;;7.10;99.90;;;;;;4996260;28;20223;-74
2023/12/21 00:59:58;;;;;;;0.60;0.60;;;7.10;99.90;;;;;;5002351;28;20845;-74
2023/12/21 01:02:24;;;;;;;0.50;0.50;;;7.10;99.90;;;;;;4984669;28;20226;-74
2023/12/21 01:04:50;;;;;;;0.50;0.50;;;7.10;99.90;;;;;;4999129;28;20217;-74
2023/12/21 01:07:15;;;;;;;0.73;0.63;;;7.10;99.90;;;;;;4998763;28;20222;-74
2023/12/21 01:09:41;;;;;;;0.67;0.67;;;7.10;99.90;;;;;;4990253;28;20217;-75
2023/12/21 01:12:07;;;;;;;0.77;0.70;;;7.10;99.90;;;;;;4983943;28;20232;-74
2023/12/21 01:14:33;;;;;;;0.50;0.40;;;7.20;99.90;;;;;;4998711;28;20219;-74
2023/12/21 01:16:59;;;;;;;0.67;0.50;;;7.20;99.90;;;;;;4986735;28;20348;-74
2023/12/21 01:19:24;;;;;;;0.60;0.40;;;7.20;99.90;;;;;;4986604;28;20457;-74
2023/12/21 01:21:50;;;;;;;0.70;0.70;;;7.20;99.90;;;;;;5000602;28;20232;-74
2023/12/21 01:24:16;;;;;;;0.87;0.50;;;7.20;99.90;;;;;;4983294;28;20213;-74
2023/12/21 01:26:42;;;;;;;0.50;0.50;;;7.20;99.90;;;;;;4997258;28;20225;-75
2023/12/21 01:29:08;;;;;;;0.50;0.50;;;7.20;99.90;;;;;;4990831;28;20316;-74
2023/12/21 01:31:33;;;;;;;0.50;0.50;;;7.20;99.90;;;;;;4999196;28;20553;-74
2023/12/21 01:34:01;;;;;;;0.87;0.47;;;7.20;99.90;;;;;;4995314;28;20222;-74
2023/12/21 01:36:27;;;;;;;0.60;0.57;;;7.30;99.90;;;;;;4993362;28;20219;-74
2023/12/21 01:38:53;;;;;;;2.00;0.83;;;7.30;99.90;;;;;;5001137;28;20499;-74
2023/12/21 01:41:19;;;;;;;0.60;0.60;;;7.30;99.90;;;;;;4998607;28;20444;-74
2023/12/21 01:43:44;;;;;;;0.60;0.50;;;7.30;99.90;;;;;;5020112;28;20532;-74
2023/12/21 01:46:10;;;;;;;0.60;0.57;;;7.30;99.90;;;;;;5000584;28;20245;-74
2023/12/21 01:48:36;;;;;;;0.60;0.60;;;7.30;99.90;;;;;;5004854;28;20294;-74
2023/12/21 01:51:04;;;;;;;0.50;0.50;;;7.30;99.90;;;;;;5006297;28;20679;-74
2023/12/21 01:53:32;;;;;;;0.60;0.60;;;7.30;99.90;;;;;;5009687;28;20471;-74
2023/12/21 01:55:59;;;;;;;0.50;0.50;;;7.30;99.90;;;;;;5025396;28;20452;-74
2023/12/21 01:58:25;;;;;;;0.60;0.60;;;7.30;99.90;;;;;;5004480;28;20453;-73
2023/12/21 02:00:52;;;;;;;0.40;0.40;;;7.30;99.90;;;;;;5025757;28;20539;-74
2023/12/21 02:03:18;;;;;;;0.60;0.60;;;7.30;99.90;;;;;;5000703;28;20229;-74
2023/12/21 02:05:44;;;;;;;0.67;0.63;;;7.30;99.90;;;;;;5002692;28;20511;-74
2023/12/21 02:08:10;;;;;;;0.90;0.50;;;7.40;99.90;;;;;;4999802;28;20252;-74
2023/12/21 02:10:39;;;;;;;0.97;0.70;;;7.30;99.90;;;;;;4983783;28;20669;-74
2023/12/21 02:13:05;;;;;;;0.97;0.47;;;7.40;99.90;;;;;;4992752;28;20308;-74
2023/12/21 02:15:31;;;;;;;0.50;0.50;;;7.40;99.90;;;;;;5005023;28;20893;-74
2023/12/21 02:18:01;;;;;;;0.50;0.50;;;7.40;99.90;;;;;;5002763;28;20231;-74
2023/12/21 02:20:27;;;;;;;0.60;0.60;;;7.40;99.90;;;;;;4994222;28;20457;-74
2023/12/21 02:22:56;;;;;;;0.47;0.47;;;7.40;99.90;;;;;;5004946;28;20456;-74
2023/12/21 02:25:22;;;;;;;0.40;0.40;;;7.40;99.90;;;;;;4999291;28;20449;-74
2023/12/21 02:27:51;;;;;;;0.77;0.67;;;7.40;99.90;;;;;;4992785;28;20960;-74
2023/12/21 02:30:17;;;;;;;0.60;0.40;;;7.40;99.90;;;;;;4995815;28;20454;-74
2023/12/21 02:32:43;;;;;;;0.50;0.50;;;7.40;99.90;;;;;;4990857;28;20477;-74
2023/12/21 02:35:09;;;;;;;0.50;0.50;;;7.40;99.90;;;;;;4995060;28;20454;-74
2023/12/21 02:37:35;;;;;;;0.50;0.40;;;7.40;99.90;;;;;;5003428;28;20220;-74
2023/12/21 02:40:01;;;;;;;1.07;0.60;;;7.50;99.90;;;;;;5007722;28;20222;-74
2023/12/21 02:42:27;;;;;;;0.40;0.30;;;7.50;99.90;;;;;;4997689;28;20223;-74
2023/12/21 02:44:52;;;;;;;1.90;0.40;;;7.50;99.90;;;;;;5002236;28;20222;-74
2023/12/21 02:47:18;;;;;;;0.50;0.50;;;7.50;99.90;;;;;;5004644;28;20225;-75
2023/12/21 02:49:44;;;;;;;1.07;0.70;;;7.50;99.90;;;;;;5007109;28;20739;-74
2023/12/21 02:52:09;;;;;;;0.70;0.50;;;7.50;99.90;;;;;;5000287;28;20804;-74
2023/12/21 02:54:35;;;;;;;0.40;0.40;;;7.50;99.90;;;;;;4999323;28;20241;-74
2023/12/21 02:57:01;;;;;;;0.50;0.50;;;7.60;99.90;;;;;;5005674;28;20221;-74
2023/12/21 02:59:26;;;;;;;0.60;0.60;;;7.50;99.90;;;;;;5006740;28;20217;-75
2023/12/21 03:01:52;;;;;;;0.50;0.50;;;7.60;99.90;;;;;;5014129;28;20554;-75
2023/12/21 03:04:18;;;;;;;0.63;0.63;;;7.60;99.90;;;;;;5015657;28;20243;-74
2023/12/21 03:06:44;;;;;;;0.67;0.67;;;7.60;99.90;;;;;;5010246;28;20253;-74
2023/12/21 03:09:09;;;;;;;0.60;0.50;;;7.60;99.90;;;;;;5013737;28;20213;-74
2023/12/21 03:11:35;;;;;;;0.70;0.60;;;7.60;99.90;;;;;;5029214;28;20548;-74
2023/12/21 03:14:02;;;;;;;0.67;0.67;;;7.60;99.90;;;;;;5029041;28;20217;-75
2023/12/21 03:16:27;;;;;;;0.50;0.50;;;7.60;99.90;;;;;;5011099;28;20457;-74
2023/12/21 03:18:53;;;;;;;0.70;0.70;;;7.60;99.90;;;;;;5029614;28;20449;-74
2023/12/21 03:21:19;;;;;;;0.80;0.80;;;7.60;99.90;;;;;;5021733;28;20254;-74
2023/12/21 03:23:45;;;;;;;0.50;0.50;;;7.60;99.90;;;;;;5023610;28;20240;-74
2023/12/21 03:26:10;;;;;;;0.60;0.60;;;7.60;99.90;;;;;;5016223;28;20292;-75
2023/12/21 03:28:37;;;;;;;0.50;0.50;;;7.60;99.90;;;;;;5012980;28;20746;-74
2023/12/21 03:31:06;;;;;;;0.77;0.77;;;7.70;99.90;;;;;;5022067;28;20202;-75
2023/12/21 03:33:31;;;;;;;0.60;0.60;;;7.70;99.90;;;;;;5036796;28;20464;-75
2023/12/21 03:35:57;;;;;;;0.40;0.40;;;7.70;99.90;;;;;;5026005;28;20454;-74
2023/12/21 03:38:23;;;;;;;0.60;0.60;;;7.70;99.90;;;;;;5041741;28;20225;-73
2023/12/21 03:40:48;;;;;;;0.70;0.60;;;7.70;99.90;;;;;;5015439;28;20248;-74
2023/12/21 03:43:14;;;;;;;0.60;0.60;;;7.70;99.90;;;;;;5025494;28;20222;-74
2023/12/21 03:45:40;;;;;;;0.90;0.70;;;7.70;99.90;;;;;;5005570;28;20229;-75
2023/12/21 03:48:08;;;;;;;1.10;0.77;;;7.70;99.90;;;;;;5012766;28;20332;-75
2023/12/21 03:50:34;;;;;;;0.50;0.50;;;7.70;99.90;;;;;;5026175;28;20456;-74
2023/12/21 03:53:00;;;;;;;0.73;0.63;;;7.80;99.90;;;;;;5020854;28;20801;-75
2023/12/21 03:55:25;;;;;;;0.70;0.67;;;7.80;99.90;;;;;;5026627;28;20723;-74
2023/12/21 03:57:51;;;;;;;0.50;0.50;;;7.80;99.90;;;;;;5025036;28;20218;-74
2023/12/21 04:00:18;;;;;;;0.67;0.67;;;7.80;99.90;;;;;;5032666;28;20224;-75
2023/12/21 04:02:47;;;;;;;0.53;0.53;;;7.80;99.90;;;;;;5027065;28;20226;-75
2023/12/21 04:05:13;;;;;;;0.50;0.50;;;7.80;99.90;;;;;;5010231;28;20840;-74
2023/12/21 04:07:38;;;;;;;0.60;0.60;;;7.80;99.90;;;;;;5012745;28;20475;-74
2023/12/21 04:10:04;;;;;;;0.60;0.60;;;7.80;99.90;;;;;;5005482;28;20213;-75
2023/12/21 04:12:30;;;;;;;0.67;0.60;;;7.80;99.90;;;;;;5002096;28;20292;-74
2023/12/21 04:14:56;;;;;;;0.53;0.53;;;7.80;99.90;;;;;;5001052;28;20497;-74
2023/12/21 04:17:22;;;;;;;0.60;0.60;;;7.80;99.90;;;;;;4994760;28;20736;-74
2023/12/21 04:19:47;;;;;;;1.00;0.90;;;7.80;99.90;;;;;;4997786;28;20215;-74
2023/12/21 04:22:13;;;;;;;1.27;0.90;;;7.80;99.90;;;;;;4993834;28;20225;-75
2023/12/21 04:24:40;;;;;;;0.50;0.50;;;7.80;99.90;;;;;;5005696;28;20228;-74
2023/12/21 04:27:06;;;;;;;0.70;0.70;;;7.80;99.90;;;;;;4989062;28;20230;-75
2023/12/21 04:29:32;;;;;;;1.67;0.70;;;7.90;99.90;;;;;;5010161;28;20453;-74
2023/12/21 04:31:57;;;;;;;1.37;0.70;;;7.90;99.90;;;;;;4999531;28;20286;-74
2023/12/21 04:34:23;;;;;;;0.63;0.60;;;7.90;99.90;;;;;;5008883;28;20222;-75
2023/12/21 04:36:48;;;;;;;1.27;0.70;;;7.90;99.90;;;;;;4995901;28;20230;-75
2023/12/21 04:39:14;;;;;;;0.50;0.50;;;7.90;99.90;;;;;;4997834;28;20289;-74
2023/12/21 04:41:40;;;;;;;0.70;0.57;;;7.90;99.90;;;;;;4994530;28;20629;-74
2023/12/21 04:44:07;;;;;;;0.60;0.50;;;7.90;99.90;;;;;;4992811;28;20249;-74
2023/12/21 04:46:32;;;;;;;0.60;0.57;;;7.90;99.90;;;;;;4984737;28;20450;-74
2023/12/21 04:48:58;;;;;;;0.70;0.57;;;7.90;99.90;;;;;;4999310;28;21002;-75
2023/12/21 04:51:24;;;;;;;0.60;0.60;;;7.90;99.90;;;;;;4996935;28;20213;-74
2023/12/21 04:53:49;;;;;;;0.50;0.50;;;7.90;99.90;;;;;;5011390;28;20225;-75
2023/12/21 04:56:15;;;;;;;0.60;0.60;;;7.90;99.90;;;;;;5010490;28;20599;-75
2023/12/21 04:58:42;;;;;;;0.70;0.50;;;7.90;99.90;;;;;;5000727;28;20242;-75
2023/12/21 05:01:08;;;;;;;0.67;0.57;;;7.90;99.90;;;;;;5006733;28;20489;-75
2023/12/21 05:03:34;;;;;;;0.47;0.47;;;7.90;99.90;;;;;;4997388;28;20483;-74
2023/12/21 05:06:01;;;;;;;0.40;0.40;;;7.90;99.90;;;;;;4999167;28;20297;-75
2023/12/21 05:08:26;;;;;;;0.57;0.57;;;7.90;99.90;;;;;;5008187;28;20503;-76
2023/12/21 05:10:52;;;;;;;0.40;0.40;;;7.90;99.90;;;;;;5001401;28;20446;-74
2023/12/21 05:13:19;;;;;;;0.40;0.40;;;7.90;99.90;;;;;;4993017;28;20233;-75
2023/12/21 05:15:44;;;;;;;0.47;0.43;;;7.90;99.90;;;;;;4988323;28;20846;-75
2023/12/21 05:18:10;;;;;;;0.67;0.50;;;7.90;99.90;;;;;;5007010;28;20568;-74
2023/12/21 05:20:35;;;;;;;0.43;0.43;;;7.90;99.90;;;;;;5002385;28;20328;-75
2023/12/21 05:23:01;;;;;;;0.60;0.60;;;7.90;99.90;;;;;;4997022;28;20263;-74
2023/12/21 05:25:27;;;;;;;0.50;0.50;;;7.90;99.90;;;;;;5007259;28;20218;-74
2023/12/21 05:27:53;;;;;;;0.60;0.57;;;7.90;99.90;;;;;;4999230;28;20314;-73
2023/12/21 05:30:19;;;;;;;0.70;0.70;;;7.90;99.90;;;;;;5004058;28;20237;-74
2023/12/21 05:32:45;;;;;;;0.40;0.40;;;7.90;99.90;;;;;;4986944;28;20225;-75
2023/12/21 05:35:11;;;;;;;0.40;0.40;;;8.00;99.90;;;;;;5002525;28;20228;-74
2023/12/21 05:37:37;;;;;;;0.53;0.53;;;8.00;99.90;;;;;;5005133;28;20532;-75
2023/12/21 05:40:03;;;;;;;0.40;0.30;;;8.00;99.90;;;;;;4990276;28;20481;-75
2023/12/21 05:42:29;;;;;;;0.67;0.50;;;8.00;99.90;;;;;;5005442;28;20229;-74
2023/12/21 05:44:55;;;;;;;1.07;0.70;;;8.00;99.90;;;;;;4995391;28;20458;-74
2023/12/21 05:47:20;;;;;;;1.00;0.60;;;8.00;99.90;;;;;;4988446;28;20251;-74
2023/12/21 05:49:46;;;;;;;0.40;0.40;;;8.00;99.90;;;;;;5001084;28;20710;-74
2023/12/21 05:52:12;;;;;;;0.40;0.40;;;8.00;99.90;;;;;;5000943;28;20226;-74
2023/12/21 05:54:38;;;;;;;0.63;0.63;;;8.00;99.90;;;;;;4991208;28;20318;-74
2023/12/21 05:57:04;;;;;;;0.50;0.40;;;8.00;99.90;;;;;;4996941;28;20536;-73
2023/12/21 05:59:30;;;;;;;0.53;0.53;;;8.00;99.90;;;;;;4988227;28;20304;-73
2023/12/21 06:01:56;;;;;;;0.40;0.40;;;8.00;99.90;;;;;;5005347;28;20986;-74
2023/12/21 06:04:22;;;;;;;0.77;0.40;;;8.00;99.90;;;;;;5001299;28;20631;-74
2023/12/21 06:06:48;;;;;;;0.60;0.60;;;8.00;99.90;;;;;;4992927;28;20461;-74
2023/12/21 06:09:14;;;;;;;0.63;0.63;;;8.00;99.90;;;;;;5006712;28;20531;-75
2023/12/21 06:11:40;;;;;;;0.43;0.43;;;8.00;99.90;;;;;;5000176;28;20321;-75
2023/12/21 06:14:06;;;;;;;0.73;0.73;;;8.10;99.90;;;;;;4990410;28;20449;-75
2023/12/21 06:16:32;;;;;;;5.00;0.70;;;8.10;99.90;;;;;;4999407;28;20444;-74
2023/12/21 06:18:59;;;;;;;1.00;0.60;;;8.10;99.90;;;;;;4988214;28;20480;-74
2023/12/21 06:21:25;;;;;;;0.40;0.40;;;8.10;99.90;;;;;;5002175;28;20222;-74
2023/12/21 06:23:51;;;;;;;0.60;0.60;;;8.10;99.90;;;;;;4990497;28;20508;-74
2023/12/21 06:26:16;;;;;;;0.43;0.43;;;8.10;99.90;;;;;;5008097;28;20291;-75
2023/12/21 06:28:42;;;;;;;0.60;0.60;;;8.10;99.90;;;;;;4999617;28;20720;-75
2023/12/21 06:31:09;;;;;;;0.40;0.40;;;8.10;99.90;;;;;;5003655;28;20237;-75
2023/12/21 06:33:34;;;;;;;0.70;0.70;;;8.10;99.90;;;;;;5005487;28;20292;-73
2023/12/21 06:36:00;;;;;;;1.73;0.93;;;8.10;99.90;;;;;;5002104;28;20457;-75
2023/12/21 06:38:26;;;;;;;0.67;0.63;;;8.10;99.90;;;;;;4991103;28;20237;-75
2023/12/21 06:40:52;;;;;;;0.70;0.70;;;8.10;99.90;;;;;;4995869;28;20226;-76
2023/12/21 06:43:19;;;;;;;0.90;0.70;;;8.10;99.90;;;;;;5005811;28;20590;-76
2023/12/21 06:45:47;;;;;;;0.87;0.87;;;8.10;99.90;;;;;;4999046;28;20506;-75
2023/12/21 06:48:13;;;;;;;0.70;0.70;;;8.10;99.90;;;;;;5001537;28;20461;-75
2023/12/21 06:50:38;;;;;;;0.80;0.80;;;8.20;99.90;;;;;;5000693;28;20448;-75
2023/12/21 06:53:04;;;;;;;0.93;0.60;;;8.10;99.90;;;;;;5011861;28;20232;-75
2023/12/21 06:55:29;;;;;;;0.90;0.80;;;8.20;99.90;;;;;;4992109;28;20213;-74
2023/12/21 06:57:55;;;;;;;0.63;0.63;;;8.20;99.90;;;;;;5001720;28;20222;-75
2023/12/21 07:00:22;;;;;;;0.77;0.77;;;8.20;99.90;;;;;;4993287;28;20314;-75
2023/12/21 07:02:48;;;;;;;0.63;0.63;;;8.20;99.90;;;;;;4999838;28;20458;-74
2023/12/21 07:05:14;;;;;;;0.70;0.70;;;8.20;99.90;;;;;;4994587;28;20522;-76
2023/12/21 07:07:40;;;;;;;0.60;0.60;;;8.20;99.90;;;;;;5001879;28;20726;-75
2023/12/21 07:10:07;;;;;;;0.50;0.50;;;8.20;99.90;;;;;;4987453;28;20225;-74
2023/12/21 07:12:33;;;;;;;0.90;0.70;;;8.20;99.90;;;;;;4995458;28;20227;-74
2023/12/21 07:14:58;;;;;;;0.60;0.60;;;8.20;99.90;;;;;;5003732;28;20453;-75
2023/12/21 07:17:24;;;;;;;1.27;0.57;;;8.20;99.90;;;;;;5000542;28;20234;-76
2023/12/21 07:19:50;;;;;;;0.63;0.60;;;8.20;99.90;;;;;;4987187;28;20298;-74
2023/12/21 07:22:15;;;;;;;0.80;0.80;;;8.20;99.90;;;;;;4993567;28;20218;-75
2023/12/21 07:24:41;;;;;;;1.47;0.60;;;8.20;99.90;;;;;;4998177;28;20237;-75
2023/12/21 07:27:07;;;;;;;0.50;0.50;;;8.20;99.90;;;;;;5000335;28;20240;-75
2023/12/21 07:29:32;;;;;;;0.40;0.40;;;8.20;99.90;;;;;;4986355;28;20310;-76
2023/12/21 07:31:59;;;;;;;0.80;0.80;;;8.20;99.90;;;;;;4989302;28;20231;-75
2023/12/21 07:34:25;;;;;;;0.50;0.50;;;8.30;99.90;;;;;;4998329;28;20225;-74
2023/12/21 07:36:50;;;;;;;0.70;0.70;;;8.20;99.90;;;;;;4993872;28;20489;-75
2023/12/21 07:39:16;;;;;;;0.80;0.80;;;8.30;99.90;;;;;;4997892;28;20295;-76
2023/12/21 07:41:42;;;;;;;0.60;0.60;;;8.30;99.90;;;;;;4996722;28;20683;-74
2023/12/21 07:44:07;;;;;;;1.73;0.60;;;8.30;99.90;;;;;;4994104;28;20223;-74
2023/12/21 07:46:33;;;;;;;0.60;0.60;;;8.30;99.90;;;;;;4993392;28;20307;-76
2023/12/21 07:48:59;;;;;;;0.83;0.60;;;8.30;99.90;;;;;;4993583;28;20222;-75
2023/12/21 07:51:24;;;;;;;17.37;1.03;;;8.30;99.90;;;;;;4985592;28;20215;-74
2023/12/21 07:53:50;;;;;;;0.40;0.40;;;8.30;99.90;;;;;;4999503;28;20445;-74
2023/12/21 07:56:16;;;;;;;0.50;0.50;;;8.30;99.90;;;;;;5004790;28;20338;-75
2023/12/21 07:58:42;;;;;;;0.50;0.50;;;8.30;99.90;;;;;;4998166;28;20222;-75
2023/12/21 08:01:07;;;;;;;0.40;0.40;;;8.30;99.90;;;;;;4998155;28;20219;-75
2023/12/21 08:03:33;;;;;;;0.50;0.50;;;8.40;99.90;;;;;;4987487;28;20213;-76
2023/12/21 08:05:59;;;;;;;1.17;0.73;;;8.40;99.90;;;;;;4992421;28;20249;-75
2023/12/21 08:08:25;;;;;;;2.13;0.63;;;8.40;99.90;;;;;;5002755;28;20808;-75
2023/12/21 08:10:50;;;;;;;1.10;0.80;;;8.40;99.90;;;;;;4996784;28;20214;-76
2023/12/21 08:13:16;;;;;;;0.50;0.50;;;8.40;99.90;;;;;;4987865;28;20599;-76
2023/12/21 08:15:42;;;;;;;0.80;0.60;;;8.40;99.90;;;;;;4998165;28;20222;-74
2023/12/21 08:18:13;;;;;;;0.50;0.50;;;8.40;99.90;;;;;;4999751;28;20233;-75
2023/12/21 08:20:41;;;;;;;0.60;0.60;;;8.40;99.90;;;;;;4995118;28;20217;-75
2023/12/21 08:23:07;;;;;;;0.40;0.40;;;8.40;99.90;;;;;;4998860;28;20456;-75
2023/12/21 08:25:33;;;;;;;0.70;0.60;;;8.40;99.90;;;;;;5001765;28;20460;-75
2023/12/21 08:27:59;;;;;;;4.40;0.70;;;8.40;99.90;;;;;;4998805;28;20241;-76
2023/12/21 08:30:24;;;;;;;0.53;0.53;;;8.40;99.90;;;;;;5003607;28;20210;-75
2023/12/21 08:32:50;;;;;;;0.50;0.50;;;8.40;99.90;;;;;;4995022;28;20511;-74
2023/12/21 08:35:17;;;;;;;0.70;0.50;;;8.50;99.90;;;;;;4983883;28;20268;-75
2023/12/21 08:37:43;;;;;;;0.50;0.50;;;8.50;99.90;;;;;;5001885;28;20234;-75
2023/12/21 08:40:10;;;;;;;0.50;0.50;;;8.50;99.90;;;;;;5002728;28;20461;-76
2023/12/21 08:42:36;;;;;;;1.60;0.70;;;8.50;99.90;;;;;;4996102;28;20473;-75
2023/12/21 08:45:05;;;;;;;0.50;0.50;;;8.50;99.90;;;;;;5002284;28;20449;-75
2023/12/21 08:47:38;;;;;;;0.50;0.50;;;8.50;99.90;;;;;;4985047;28;20221;-74
2023/12/21 08:50:04;;;;;;;0.60;0.60;;;8.50;99.90;;;;;;4979196;28;20528;-76
2023/12/21 08:52:30;;;;;;;0.50;0.50;;;8.50;99.90;;;;;;4999731;28;21046;-75
2023/12/21 08:54:55;;;;;;;0.40;0.40;;;8.50;99.90;;;;;;4996473;28;20458;-74
2023/12/21 08:57:22;;;;;;;0.63;0.60;;;8.50;99.90;;;;;;4998176;28;20219;-74
2023/12/21 08:59:48;;;;;;;0.50;0.50;;;8.50;99.90;;;;;;4995885;28;20225;-74
2023/12/21 09:02:14;;;;;;;1.23;0.40;;;8.60;99.90;;;;;;4987684;28;20462;-75
2023/12/21 09:04:40;;;;;;;0.50;0.50;;;8.60;99.90;;;;;;4987643;28;20453;-74
2023/12/21 09:07:05;;;;;;;0.63;0.63;;;8.60;99.90;;;;;;4987112;28;20468;-75
2023/12/21 09:09:31;;;;;;;0.77;0.43;;;8.60;99.90;;;;;;5000817;28;20222;-75
2023/12/21 09:11:57;;;;;;;0.60;0.60;;;8.60;99.90;;;;;;5003216;28;20331;-75
2023/12/21 09:14:24;;;;;;;0.50;0.40;;;8.60;99.90;;;;;;5007799;28;20483;-75
2023/12/21 09:16:51;;;;;;;0.70;0.70;;;8.60;99.90;;;;;;4990091;28;20526;-74
2023/12/21 09:19:17;;;;;;;0.57;0.50;;;8.60;99.90;;;;;;4986406;28;20453;-75
2023/12/21 09:21:43;;;;;;;0.50;0.40;;;8.60;99.90;;;;;;4999207;28;20532;-74
2023/12/21 09:24:09;;;;;;;0.67;0.40;;;8.60;99.90;;;;;;4993921;28;20573;-75
2023/12/21 09:26:34;;;;;;;0.40;0.30;;;8.70;99.90;;;;;;4997311;28;20224;-75
2023/12/21 09:29:04;;;;;;;0.40;0.40;;;8.70;99.90;;;;;;5001672;28;20670;-75
2023/12/21 09:31:31;;;;;;;0.77;0.50;;;8.80;99.90;;;;;;4989638;28;20218;-74
2023/12/21 09:33:57;;;;;;;0.67;0.50;;;8.80;99.90;;;;;;5004639;28;20457;-75
2023/12/21 09:36:23;;;;;;;0.53;0.53;;;8.80;99.90;;;;;;4987216;28;20502;-75
2023/12/21 09:38:49;;;;;;;0.50;0.40;;;8.80;99.90;;;;;;4991417;28;20479;-76
2023/12/21 09:41:15;;;;;;;0.60;0.50;;;8.80;99.90;;;;;;4992158;28;20457;-76
2023/12/21 09:43:41;;;;;;;0.70;0.70;;;8.80;99.90;;;;;;4997038;28;20219;-75
2023/12/21 09:46:08;;;;;;;0.70;0.70;;;8.90;99.90;;;;;;5006410;28;20214;-75
2023/12/21 09:48:37;;;;;;;0.40;0.40;;;8.90;99.90;;;;;;5000246;28;21099;-75
2023/12/21 09:51:05;;;;;;;0.40;0.33;;;8.90;99.90;;;;;;5000944;28;20515;-75
2023/12/21 09:53:33;;;;;;;0.50;0.43;;;9.00;99.90;;;;;;4995096;28;20469;-76
2023/12/21 09:56:00;;;;;;;0.40;0.40;;;9.10;99.90;;;;;;4996604;28;20460;-75
2023/12/21 09:58:26;;;;;;;0.40;0.40;;;9.10;99.90;;;;;;5000942;28;20454;-75
2023/12/21 10:00:51;;;;;;;0.67;0.47;;;9.10;99.90;;;;;;4997040;28;20986;-74
2023/12/21 10:03:18;;;;;;;1.83;0.50;;;9.20;99.90;;;;;;5004496;28;20214;-75
2023/12/21 10:05:44;;;;;;;0.40;0.30;;;9.20;99.90;;;;;;5006480;28;20214;-75
2023/12/21 10:08:09;;;;;;;0.40;0.30;;;9.30;99.90;;;;;;5003632;28;20951;-76
2023/12/21 10:10:38;;;;;;;1.83;0.70;;;9.30;99.90;;;;;;5006847;28;20218;-75
2023/12/21 10:13:04;;;;;;;0.43;0.43;;;9.30;99.90;;;;;;5004841;28;20309;-75
2023/12/21 10:15:33;;;;;;;2.87;2.60;;;9.30;99.90;;;;;;5002817;28;20890;-75
2023/12/21 10:17:59;;;;;;;2.10;2.00;;;9.30;99.90;;;;;;4997034;28;20231;-75
2023/12/21 10:20:26;;;;;;;2.50;2.30;;;9.40;99.90;;;;;;4985466;28;20466;-74
2023/12/21 10:22:52;;;;;;;0.90;0.90;;;9.40;99.90;;;;;;4985402;28;20466;-75
2023/12/21 10:25:21;;;;;;;1.33;1.23;;;9.40;99.90;;;;;;4999254;28;20842;-76
2023/12/21 10:27:56;;;;;;;1.00;1.00;;;9.40;99.90;;;;;;5002445;28;20462;-75
2023/12/21 10:30:23;;;;;;;0.60;0.60;;;9.40;99.90;;;;;;4987079;28;20465;-75
2023/12/21 10:32:53;;;;;;;0.50;0.50;;;9.40;99.90;;;;;;4992805;28;20480;-75
2023/12/21 10:35:19;;;;;;;0.60;0.40;;;9.40;99.90;;;;;;4999431;28;20460;-76
2023/12/21 10:37:48;;;;;;;0.60;0.53;;;9.40;99.90;;;;;;4984570;28;20453;-75
2023/12/21 10:40:15;;;;;;;0.83;0.60;;;9.40;99.90;;;;;;4974490;28;20991;-76
2023/12/21 10:42:47;;;;;;;0.60;0.50;;;9.50;99.90;;;;;;5003859;28;20487;-75
2023/12/21 10:45:18;;;;;;;0.60;0.60;;;9.50;99.90;;;;;;4971230;28;20969;-75
2023/12/21 10:47:51;;;;;;;0.60;0.60;;;9.40;99.90;;;;;;4996648;28;20463;-75
2023/12/21 10:50:19;;;;;;;0.40;0.40;;;9.40;99.90;;;;;;4998913;28;20840;-75
2023/12/21 10:52:46;;;;;;;0.50;0.50;;;9.40;99.90;;;;;;5000431;28;20500;-75
2023/12/21 10:55:17;;;;;;;0.60;0.60;;;9.40;99.90;;;;;;5005446;28;20457;-76
2023/12/21 10:57:44;;;;;;;0.60;0.43;;;9.40;99.90;;;;;;4995228;28;20457;-75
2023/12/21 11:00:15;;;;;;;0.70;0.40;;;9.40;99.90;;;;;;5000696;28;20461;-75
2023/12/21 11:02:46;;;;;;;0.50;0.50;;;9.40;99.90;;;;;;4996378;28;20465;-75
2023/12/21 11:05:20;;;;;;;0.53;0.53;;;9.40;99.90;;;;;;4986947;28;20479;-75
2023/12/21 11:07:54;;;;;;;23.50;12.90;;;9.40;99.90;;;;;;5000521;28;20468;-75
2023/12/21 11:10:22;;;;;;;1.13;1.03;;;9.50;99.90;;;;;;4991033;28;20452;-76
2023/12/21 11:12:48;;;;;;;0.50;0.50;;;9.50;99.90;;;;;;4991255;28;20468;-75
2023/12/21 11:15:19;;;;;;;0.50;0.40;;;9.50;99.90;;;;;;4994999;28;20479;-76
2023/12/21 11:18:05;;;;;;;0.43;0.43;;;9.60;99.90;;;;;;4993049;28;20888;-76
2023/12/21 11:20:37;;;;;;;1.83;1.57;;;9.60;99.90;;;;;;5000706;28;20465;-73
2023/12/21 11:23:06;;;;;;;0.80;0.80;;;9.60;99.90;;;;;;4988500;28;21029;-75
2023/12/21 11:25:33;;;;;;;1.23;1.17;;;9.50;99.90;;;;;;4995971;28;20462;-75
2023/12/21 11:28:02;;;;;;;1.93;1.10;;;9.60;99.90;;;;;;5000329;28;20480;-75
2023/12/21 11:30:29;;;;;;;0.80;0.50;;;9.50;99.90;;;;;;4999109;28;20461;-75
2023/12/21 11:33:09;;;;;;;1.53;0.80;;;9.60;99.90;;;;;;5001087;28;20469;-74
2023/12/21 11:35:35;;;;;;;0.93;0.60;;;9.60;99.90;;;;;;4990675;28;20453;-74
2023/12/21 11:38:08;;;;;;;1.27;0.90;;;9.60;99.90;;;;;;4998535;28;20464;-75
2023/12/21 11:40:35;;;;;;;0.50;0.50;;;9.60;99.90;;;;;;5003191;28;20510;-74
2023/12/21 11:43:02;;;;;;;1.30;0.93;;;9.60;99.90;;;;;;5001312;28;20470;-76
2023/12/21 11:45:30;;;;;;;0.77;0.57;;;9.60;99.90;;;;;;4979402;28;20504;-76
2023/12/21 11:48:00;;;;;;;0.50;0.50;;;9.60;99.90;;;;;;4987518;28;20974;-74
2023/12/21 11:50:30;;;;;;;0.50;0.50;;;9.60;99.90;;;;;;5000491;28;20473;-76
2023/12/21 11:53:09;;;;;;;0.77;0.53;;;9.60;99.90;;;;;;5002468;28;20526;-75
2023/12/21 11:55:39;;;;;;;0.40;0.30;;;9.60;99.90;;;;;;5005698;28;20599;-75
2023/12/21 11:58:08;;;;;;;0.40;0.40;;;9.60;99.90;;;;;;5002720;28;21005;-76
2023/12/21 12:00:41;;;;;;;0.40;0.40;;;9.60;99.90;;;;;;4996284;28;20461;-75
2023/12/21 12:03:07;;;;;;;1.03;0.70;;;9.60;99.90;;;;;;5002733;28;20467;-76
2023/12/21 12:05:33;;;;;;;1.17;0.40;;;9.50;99.90;;;;;;4999745;28;20457;-75
2023/12/21 12:07:58;;;;;;;5.87;4.80;;;9.50;99.90;;;;;;4988169;28;20466;-75
2023/12/21 12:10:24;;;;;;;2.90;2.70;;;9.50;99.90;;;;;;5000372;28;20231;-74
2023/12/21 12:12:52;;;;;;;1.53;1.43;;;9.50;99.90;;;;;;5000298;28;20246;-75
2023/12/21 12:15:19;;;;;;;1.20;1.10;;;9.50;99.90;;;;;;4988728;28;20320;-75
2023/12/21 12:17:44;;;;;;;0.97;0.97;;;9.50;99.90;;;;;;4985821;28;20464;-76
2023/12/21 12:20:10;;;;;;;0.53;0.53;;;9.50;99.90;;;;;;5004270;28;20449;-75
2023/12/21 12:22:37;;;;;;;0.70;0.70;;;9.50;99.90;;;;;;4986333;28;20217;-73
2023/12/21 12:25:04;;;;;;;1.10;1.00;;;9.50;99.90;;;;;;4993670;28;20446;-75
2023/12/21 12:27:30;;;;;;;0.60;0.60;;;9.50;99.90;;;;;;4998071;28;20445;-75
2023/12/21 12:29:57;;;;;;;0.47;0.47;;;9.50;99.90;;;;;;5004625;28;20524;-75
2023/12/21 12:32:23;;;;;;;0.40;0.40;;;9.50;99.90;;;;;;4999026;28;20462;-75
2023/12/21 12:34:48;;;;;;;0.40;0.40;;;9.50;99.90;;;;;;4982980;28;20465;-75
2023/12/21 12:37:17;;;;;;;0.93;0.70;;;9.50;99.90;;;;;;4988251;28;20462;-75
2023/12/21 12:39:49;;;;;;;0.80;0.80;;;9.50;99.90;;;;;;5007463;28;20210;-75
2023/12/21 12:42:17;;;;;;;0.57;0.57;;;9.50;99.90;;;;;;5000970;28;20453;-75
2023/12/21 12:44:43;;;;;;;0.80;0.50;;;9.50;99.90;;;;;;4995140;28;20545;-76
2023/12/21 12:47:10;;;;;;;0.50;0.50;;;9.50;99.90;;;;;;5005614;28;21016;-75
2023/12/21 12:49:37;;;;;;;1.27;1.17;;;9.50;99.90;;;;;;5003849;28;20465;-74
2023/12/21 12:52:06;;;;;;;1.30;1.20;;;9.50;99.90;;;;;;5003400;28;20568;-76
2023/12/21 12:54:33;;;;;;;0.80;0.80;;;9.50;99.90;;;;;;5000875;28;20453;-75